sensor_id;sensor_type;location;lat;lon;timestamp;pressure;altitude;pressure_sealevel;temperature;humidity
9077;BME280;4574;51.072;17.174;2023-02-12T00:01:45;101634.44;;;6.57;100.00
9077;BME280;4574;51.072;17.174;2023-02-12T00:04:14;101638.94;;;6.56;100.00
9077;BME280;4574;51.072;17.174;2023-02-12T00:06:43;101629.50;;;6.52;100.00
9077;BME280;4574;51.072;17.174;2023-02-12T00:09:12;101618.41;;;6.47;100.00
9077;BME280;4574;51.072;17.174;2023-02-12T00:11:40;101628.56;;;6.53;100.00
9077;BME280;4574;51.072;17.174;2023-02-12T00:14:10;101641.56;;;6.56;100.00
9077;BME280;4574;51.072;17.174;2023-02-12T00:16:39;101643.25;;;6.57;100.00
9077;BME280;4574;51.072;17.174;2023-02-12T00:19:08;101653.72;;;6.58;100.00
9077;BME280;4574;51.072;17.174;2023-02-12T00:21:36;101647.75;;;6.55;100.00
9077;BME280;4574;51.072;17.174;2023-02-12T00:24:05;101639.69;;;6.57;100.00
9077;BME280;4574;51.072;17.174;2023-02-12T00:26:35;101644.13;;;6.57;100.00
9077;BME280;4574;51.072;17.174;2023-02-12T00:29:03;101645.22;;;6.53;100.00
9077;BME280;4574;51.072;17.174;2023-02-12T00:31:33;101642.66;;;6.52;100.00
9077;BME280;4574;51.072;17.174;2023-02-12T00:34:02;101644.38;;;6.53;100.00
9077;BME280;4574;51.072;17.174;2023-02-12T00:36:31;101643.34;;;6.55;100.00
9077;BME280;4574;51.072;17.174;2023-02-12T00:39:00;101639.97;;;6.53;100.00
9077;BME280;4574;51.072;17.174;2023-02-12T00:41:28;101646.22;;;6.51;100.00
9077;BME280;4574;51.072;17.174;2023-02-12T00:43:57;101647.94;;;6.52;100.00
9077;BME280;4574;51.072;17.174;2023-02-12T00:46:25;101647.09;;;6.51;100.00
9077;BME280;4574;51.072;17.174;2023-02-12T00:48:55;101648.84;;;6.51;100.00
9077;BME280;4574;51.072;17.174;2023-02-12T00:51:24;101643.59;;;6.51;100.00
9077;BME280;4574;51.072;17.174;2023-02-12T00:53:52;101647.75;;;6.55;100.00
9077;BME280;4574;51.072;17.174;2023-02-12T00:56:21;101651.31;;;6.54;100.00
9077;BME280;4574;51.072;17.174;2023-02-12T00:58:50;101650.38;;;6.55;100.00
9077;BME280;4574;51.072;17.174;2023-02-12T01:01:18;101653.19;;;6.52;100.00
9077;BME280;4574;51.072;17.174;2023-02-12T01:03:47;101649.78;;;6.50;100.00
9077;BME280;4574;51.072;17.174;2023-02-12T01:06:16;101662.78;;;6.53;100.00
9077;BME280;4574;51.072;17.174;2023-02-12T01:08:45;101655.81;;;6.52;100.00
9077;BME280;4574;51.072;17.174;2023-02-12T01:11:13;101659.97;;;6.56;100.00
9077;BME280;4574;51.072;17.174;2023-02-12T01:13:42;101666.28;;;6.53;100.00
9077;BME280;4574;51.072;17.174;2023-02-12T01:16:14;101658.38;;;6.53;100.00
9077;BME280;4574;51.072;17.174;2023-02-12T01:18:44;101685.53;;;6.54;100.00
9077;BME280;4574;51.072;17.174;2023-02-12T01:21:16;101698.50;;;6.57;100.00
9077;BME280;4574;51.072;17.174;2023-02-12T01:23:46;101703.00;;;6.55;100.00
9077;BME280;4574;51.072;17.174;2023-02-12T01:26:16;101708.09;;;6.57;100.00
9077;BME280;4574;51.072;17.174;2023-02-12T01:28:49;101706.06;;;6.62;100.00
9077;BME280;4574;51.072;17.174;2023-02-12T01:31:20;101700.03;;;6.60;100.00
9077;BME280;4574;51.072;17.174;2023-02-12T01:33:51;101704.63;;;6.57;100.00
9077;BME280;4574;51.072;17.174;2023-02-12T01:36:22;101705.81;;;6.52;100.00
9077;BME280;4574;51.072;17.174;2023-02-12T01:38:50;101716.16;;;6.55;100.00
9077;BME280;4574;51.072;17.174;2023-02-12T01:41:20;101714.47;;;6.54;100.00
9077;BME280;4574;51.072;17.174;2023-02-12T01:44:07;101713.53;;;6.55;100.00
9077;BME280;4574;51.072;17.174;2023-02-12T01:46:36;101728.38;;;6.56;100.00
9077;BME280;4574;51.072;17.174;2023-02-12T01:49:09;101724.91;;;6.55;100.00
9077;BME280;4574;51.072;17.174;2023-02-12T01:51:42;101724.16;;;6.53;100.00
9077;BME280;4574;51.072;17.174;2023-02-12T01:54:14;101728.38;;;6.56;100.00
9077;BME280;4574;51.072;17.174;2023-02-12T01:56:43;101727.59;;;6.54;100.00
9077;BME280;4574;51.072;17.174;2023-02-12T01:59:12;101726.09;;;6.50;100.00
9077;BME280;4574;51.072;17.174;2023-02-12T02:01:41;101732.09;;;6.52;100.00
9077;BME280;4574;51.072;17.174;2023-02-12T02:04:12;101732.09;;;6.52;100.00
9077;BME280;4574;51.072;17.174;2023-02-12T02:06:49;101731.09;;;6.54;100.00
9077;BME280;4574;51.072;17.174;2023-02-12T02:09:21;101727.72;;;6.52;100.00
9077;BME280;4574;51.072;17.174;2023-02-12T02:11:49;101740.94;;;6.51;100.00
9077;BME280;4574;51.072;17.174;2023-02-12T02:14:36;101739.16;;;6.51;100.00
9077;BME280;4574;51.072;17.174;2023-02-12T02:17:27;101733.22;;;6.48;100.00
9077;BME280;4574;51.072;17.174;2023-02-12T02:23:28;101734.13;;;6.47;100.00
9077;BME280;4574;51.072;17.174;2023-02-12T02:26:23;101742.97;;;6.46;100.00
9077;BME280;4574;51.072;17.174;2023-02-12T02:29:06;101735.34;;;6.41;100.00
9077;BME280;4574;51.072;17.174;2023-02-12T02:31:43;101751.88;;;6.43;100.00
9077;BME280;4574;51.072;17.174;2023-02-12T02:34:18;101754.41;;;6.45;100.00
9077;BME280;4574;51.072;17.174;2023-02-12T02:36:52;101749.16;;;6.45;100.00
9077;BME280;4574;51.072;17.174;2023-02-12T02:39:32;101759.78;;;6.43;100.00
9077;BME280;4574;51.072;17.174;2023-02-12T02:42:09;101764.00;;;6.46;100.00
9077;BME280;4574;51.072;17.174;2023-02-12T02:44:41;101771.91;;;6.46;100.00
9077;BME280;4574;51.072;17.174;2023-02-12T02:47:14;101768.44;;;6.45;100.00
9077;BME280;4574;51.072;17.174;2023-02-12T02:49:49;101768.50;;;6.44;100.00
9077;BME280;4574;51.072;17.174;2023-02-12T02:52:21;101769.53;;;6.41;100.00
9077;BME280;4574;51.072;17.174;2023-02-12T02:54:55;101778.09;;;6.45;100.00
9077;BME280;4574;51.072;17.174;2023-02-12T02:57:28;101777.44;;;6.41;100.00
9077;BME280;4574;51.072;17.174;2023-02-12T03:00:04;101781.66;;;6.44;100.00
9077;BME280;4574;51.072;17.174;2023-02-12T03:02:39;101782.53;;;6.44;100.00
9077;BME280;4574;51.072;17.174;2023-02-12T03:05:13;101781.66;;;6.44;100.00
9077;BME280;4574;51.072;17.174;2023-02-12T03:07:47;101779.94;;;6.43;100.00
9077;BME280;4574;51.072;17.174;2023-02-12T03:10:20;101785.22;;;6.43;100.00
9077;BME280;4574;51.072;17.174;2023-02-12T03:12:54;101801.75;;;6.45;100.00
9077;BME280;4574;51.072;17.174;2023-02-12T03:15:30;101795.56;;;6.46;100.00
9077;BME280;4574;51.072;17.174;2023-02-12T03:18:04;101801.00;;;6.43;100.00
9077;BME280;4574;51.072;17.174;2023-02-12T03:20:41;101809.50;;;6.48;100.00
9077;BME280;4574;51.072;17.174;2023-02-12T03:23:13;101808.50;;;6.50;100.00
9077;BME280;4574;51.072;17.174;2023-02-12T03:25:48;101806.84;;;6.48;100.00
9077;BME280;4574;51.072;17.174;2023-02-12T03:28:27;101802.38;;;6.50;100.00
9077;BME280;4574;51.072;17.174;2023-02-12T03:31:02;101809.81;;;6.42;100.00
9077;BME280;4574;51.072;17.174;2023-02-12T03:33:41;101812.53;;;6.40;100.00
9077;BME280;4574;51.072;17.174;2023-02-12T03:36:21;101816.00;;;6.41;100.00
9077;BME280;4574;51.072;17.174;2023-02-12T03:38:52;101820.75;;;6.34;100.00
9077;BME280;4574;51.072;17.174;2023-02-12T03:41:25;101830.25;;;6.37;100.00
9077;BME280;4574;51.072;17.174;2023-02-12T03:44:02;101831.19;;;6.36;100.00
9077;BME280;4574;51.072;17.174;2023-02-12T03:46:38;101832.88;;;6.37;100.00
9077;BME280;4574;51.072;17.174;2023-02-12T03:49:17;101843.41;;;6.37;100.00
9077;BME280;4574;51.072;17.174;2023-02-12T03:51:48;101846.03;;;6.37;100.00
9077;BME280;4574;51.072;17.174;2023-02-12T03:54:19;101840.78;;;6.37;100.00
9077;BME280;4574;51.072;17.174;2023-02-12T03:56:50;101848.75;;;6.35;100.00
9077;BME280;4574;51.072;17.174;2023-02-12T03:59:21;101849.84;;;6.31;100.00
9077;BME280;4574;51.072;17.174;2023-02-12T04:01:57;101849.84;;;6.31;100.00
9077;BME280;4574;51.072;17.174;2023-02-12T04:04:28;101856.88;;;6.31;100.00
9077;BME280;4574;51.072;17.174;2023-02-12T04:06:57;101847.59;;;6.24;100.00
9077;BME280;4574;51.072;17.174;2023-02-12T04:09:26;101863.06;;;6.30;100.00
9077;BME280;4574;51.072;17.174;2023-02-12T04:12:07;101869.19;;;6.30;100.00
9077;BME280;4574;51.072;17.174;2023-02-12T04:14:43;101863.22;;;6.27;100.00
9077;BME280;4574;51.072;17.174;2023-02-12T04:17:19;101878.06;;;6.28;100.00
9077;BME280;4574;51.072;17.174;2023-02-12T04:20:02;101879.78;;;6.29;100.00
9077;BME280;4574;51.072;17.174;2023-02-12T04:22:44;101877.16;;;6.29;100.00
9077;BME280;4574;51.072;17.174;2023-02-12T04:25:21;101881.47;;;6.30;100.00
9077;BME280;4574;51.072;17.174;2023-02-12T04:28:00;101872.81;;;6.28;100.00
9077;BME280;4574;51.072;17.174;2023-02-12T04:30:37;101886.84;;;6.28;100.00
9077;BME280;4574;51.072;17.174;2023-02-12T04:33:13;101886.91;;;6.27;100.00
9077;BME280;4574;51.072;17.174;2023-02-12T04:35:50;101894.94;;;6.24;100.00
9077;BME280;4574;51.072;17.174;2023-02-12T04:38:25;101890.56;;;6.24;100.00
9077;BME280;4574;51.072;17.174;2023-02-12T04:40:55;101891.22;;;6.28;100.00
9077;BME280;4574;51.072;17.174;2023-02-12T04:43:27;101900.19;;;6.24;100.00
9077;BME280;4574;51.072;17.174;2023-02-12T04:45:55;101907.16;;;6.25;100.00
9077;BME280;4574;51.072;17.174;2023-02-12T04:48:24;101907.00;;;6.28;100.00
9077;BME280;4574;51.072;17.174;2023-02-12T04:50:54;101927.44;;;6.23;100.00
9077;BME280;4574;51.072;17.174;2023-02-12T04:53:23;101914.28;;;6.23;100.00
9077;BME280;4574;51.072;17.174;2023-02-12T04:55:51;101915.97;;;6.24;100.00
9077;BME280;4574;51.072;17.174;2023-02-12T04:58:21;101920.47;;;6.22;100.00
9077;BME280;4574;51.072;17.174;2023-02-12T05:00:50;101918.00;;;6.19;100.00
9077;BME280;4574;51.072;17.174;2023-02-12T05:03:18;101916.22;;;6.19;100.00
9077;BME280;4574;51.072;17.174;2023-02-12T05:05:47;101931.06;;;6.20;100.00
9077;BME280;4574;51.072;17.174;2023-02-12T05:08:16;101927.69;;;6.18;100.00
9077;BME280;4574;51.072;17.174;2023-02-12T05:10:45;101936.25;;;6.22;100.00
9077;BME280;4574;51.072;17.174;2023-02-12T05:13:13;101935.63;;;6.17;100.00
9077;BME280;4574;51.072;17.174;2023-02-12T05:15:42;101927.44;;;6.06;100.00
9077;BME280;4574;51.072;17.174;2023-02-12T05:18:11;101940.03;;;6.16;100.00
9077;BME280;4574;51.072;17.174;2023-02-12T05:20:39;101935.63;;;6.17;100.00
9077;BME280;4574;51.072;17.174;2023-02-12T05:23:08;101937.56;;;6.13;100.00
9077;BME280;4574;51.072;17.174;2023-02-12T05:25:37;101944.53;;;6.14;100.00
9077;BME280;4574;51.072;17.174;2023-02-12T05:28:06;101938.34;;;6.15;100.00
9077;BME280;4574;51.072;17.174;2023-02-12T05:30:34;101959.13;;;6.20;100.00
9077;BME280;4574;51.072;17.174;2023-02-12T05:33:03;101951.25;;;6.20;100.00
9077;BME280;4574;51.072;17.174;2023-02-12T05:35:33;101955.72;;;6.18;100.00
9077;BME280;4574;51.072;17.174;2023-02-12T05:38:02;101961.75;;;6.20;100.00
9077;BME280;4574;51.072;17.174;2023-02-12T05:40:30;101956.59;;;6.18;100.00
9077;BME280;4574;51.072;17.174;2023-02-12T05:43:00;101945.63;;;6.10;100.00
9077;BME280;4574;51.072;17.174;2023-02-12T05:45:29;101970.88;;;6.30;100.00
9077;BME280;4574;51.072;17.174;2023-02-12T05:47:59;101976.91;;;6.32;100.00
9077;BME280;4574;51.072;17.174;2023-02-12T05:50:28;101976.91;;;6.32;100.00
9077;BME280;4574;51.072;17.174;2023-02-12T05:52:58;101980.16;;;6.37;100.00
9077;BME280;4574;51.072;17.174;2023-02-12T05:55:27;101983.72;;;6.36;100.00
9077;BME280;4574;51.072;17.174;2023-02-12T05:57:56;101992.56;;;6.35;100.00
9077;BME280;4574;51.072;17.174;2023-02-12T06:00:25;101990.00;;;6.33;100.00
9077;BME280;4574;51.072;17.174;2023-02-12T06:02:54;102004.63;;;6.39;100.00
9077;BME280;4574;51.072;17.174;2023-02-12T06:05:22;102008.03;;;6.41;100.00
9077;BME280;4574;51.072;17.174;2023-02-12T06:07:51;102015.75;;;6.44;100.00
9077;BME280;4574;51.072;17.174;2023-02-12T06:10:19;102023.44;;;6.48;100.00
9077;BME280;4574;51.072;17.174;2023-02-12T06:12:53;102016.63;;;6.44;100.00
9077;BME280;4574;51.072;17.174;2023-02-12T06:15:21;102025.50;;;6.42;100.00
9077;BME280;4574;51.072;17.174;2023-02-12T06:17:51;102010.03;;;6.36;100.00
9077;BME280;4574;51.072;17.174;2023-02-12T06:20:20;102032.56;;;6.41;100.00
9077;BME280;4574;51.072;17.174;2023-02-12T06:22:48;102041.13;;;6.45;100.00
9077;BME280;4574;51.072;17.174;2023-02-12T06:25:17;102053.22;;;6.49;100.00
9077;BME280;4574;51.072;17.174;2023-02-12T06:27:45;102053.94;;;6.52;100.00
9077;BME280;4574;51.072;17.174;2023-02-12T06:30:14;102044.63;;;6.45;100.00
9077;BME280;4574;51.072;17.174;2023-02-12T06:32:43;102065.38;;;6.51;100.00
9077;BME280;4574;51.072;17.174;2023-02-12T06:35:13;102048.72;;;6.51;100.00
9077;BME280;4574;51.072;17.174;2023-02-12T06:37:41;102055.63;;;6.53;100.00
9077;BME280;4574;51.072;17.174;2023-02-12T06:40:10;102059.88;;;6.56;100.00
9077;BME280;4574;51.072;17.174;2023-02-12T06:42:40;102066.00;;;6.56;100.00
9077;BME280;4574;51.072;17.174;2023-02-12T06:45:09;102072.97;;;6.57;100.00
9077;BME280;4574;51.072;17.174;2023-02-12T06:47:37;102077.34;;;6.57;100.00
9077;BME280;4574;51.072;17.174;2023-02-12T06:50:06;102073.78;;;6.57;100.00
9077;BME280;4574;51.072;17.174;2023-02-12T06:52:36;102083.41;;;6.58;100.00
9077;BME280;4574;51.072;17.174;2023-02-12T06:55:05;102086.03;;;6.58;100.00
9077;BME280;4574;51.072;17.174;2023-02-12T06:57:34;102087.72;;;6.59;100.00
9077;BME280;4574;51.072;17.174;2023-02-12T07:00:03;102085.88;;;6.61;100.00
9077;BME280;4574;51.072;17.174;2023-02-12T07:02:31;102093.72;;;6.63;100.00
9077;BME280;4574;51.072;17.174;2023-02-12T07:05:01;102090.22;;;6.62;100.00
9077;BME280;4574;51.072;17.174;2023-02-12T07:07:30;102096.50;;;6.60;100.00
9077;BME280;4574;51.072;17.174;2023-02-12T07:10:00;102094.53;;;6.63;100.00
9077;BME280;4574;51.072;17.174;2023-02-12T07:12:28;102108.56;;;6.64;100.00
9077;BME280;4574;51.072;17.174;2023-02-12T07:14:56;102113.88;;;6.62;100.00
9077;BME280;4574;51.072;17.174;2023-02-12T07:17:25;102111.34;;;6.61;100.00
9077;BME280;4574;51.072;17.174;2023-02-12T07:19:53;102087.34;;;6.50;100.00
9077;BME280;4574;51.072;17.174;2023-02-12T07:22:22;102120.09;;;6.61;100.00
9077;BME280;4574;51.072;17.174;2023-02-12T07:24:50;102119.78;;;6.67;100.00
9077;BME280;4574;51.072;17.174;2023-02-12T07:27:20;102121.47;;;6.68;100.00
9077;BME280;4574;51.072;17.174;2023-02-12T07:29:49;102130.16;;;6.70;100.00
9077;BME280;4574;51.072;17.174;2023-02-12T07:32:17;102134.47;;;6.71;100.00
9077;BME280;4574;51.072;17.174;2023-02-12T07:34:46;102134.34;;;6.74;100.00
9077;BME280;4574;51.072;17.174;2023-02-12T07:37:14;102136.03;;;6.75;100.00
9077;BME280;4574;51.072;17.174;2023-02-12T07:39:48;102130.88;;;6.74;100.00
9077;BME280;4574;51.072;17.174;2023-02-12T07:42:17;102135.88;;;6.78;100.00
9077;BME280;4574;51.072;17.174;2023-02-12T07:44:47;102137.59;;;6.79;100.00
9077;BME280;4574;51.072;17.174;2023-02-12T07:47:16;102134.06;;;6.80;100.00
9077;BME280;4574;51.072;17.174;2023-02-12T07:49:44;102140.38;;;6.76;100.00
9077;BME280;4574;51.072;17.174;2023-02-12T07:52:13;102138.53;;;6.78;100.00
9077;BME280;4574;51.072;17.174;2023-02-12T07:54:41;102131.84;;;6.71;100.00
9077;BME280;4574;51.072;17.174;2023-02-12T07:57:10;102143.00;;;6.76;100.00
9077;BME280;4574;51.072;17.174;2023-02-12T07:59:38;102149.84;;;6.80;100.00
9077;BME280;4574;51.072;17.174;2023-02-12T08:02:09;102129.22;;;6.71;100.00
9077;BME280;4574;51.072;17.174;2023-02-12T08:04:38;102151.47;;;6.83;100.00
9077;BME280;4574;51.072;17.174;2023-02-12T08:07:06;102163.00;;;6.80;100.00
9077;BME280;4574;51.072;17.174;2023-02-12T08:09:35;102162.00;;;6.83;100.00
9077;BME280;4574;51.072;17.174;2023-02-12T08:12:04;102154.81;;;6.86;100.00
9077;BME280;4574;51.072;17.174;2023-02-12T08:14:32;102159.38;;;6.83;100.00
9077;BME280;4574;51.072;17.174;2023-02-12T08:17:01;102167.06;;;6.87;100.00
9077;BME280;4574;51.072;17.174;2023-02-12T08:19:31;102162.63;;;6.88;100.00
9077;BME280;4574;51.072;17.174;2023-02-12T08:21:59;102162.34;;;6.75;100.00
9077;BME280;4574;51.072;17.174;2023-02-12T08:24:29;102163.78;;;6.82;100.00
9077;BME280;4574;51.072;17.174;2023-02-12T08:26:58;102165.34;;;6.86;100.00
9077;BME280;4574;51.072;17.174;2023-02-12T08:29:28;102167.06;;;6.87;100.00
9077;BME280;4574;51.072;17.174;2023-02-12T08:31:58;102168.91;;;6.85;100.00
9077;BME280;4574;51.072;17.174;2023-02-12T08:34:28;102170.59;;;6.86;100.00
9077;BME280;4574;51.072;17.174;2023-02-12T08:36:59;102157.25;;;6.72;100.00
9077;BME280;4574;51.072;17.174;2023-02-12T08:39:28;102172.63;;;6.81;100.00
9077;BME280;4574;51.072;17.174;2023-02-12T08:41:58;102164.84;;;6.78;100.00
9077;BME280;4574;51.072;17.174;2023-02-12T08:44:27;102175.47;;;6.77;100.00
9077;BME280;4574;51.072;17.174;2023-02-12T08:46:56;102176.38;;;6.76;100.00
9077;BME280;4574;51.072;17.174;2023-02-12T08:49:26;102172.34;;;6.69;100.00
9077;BME280;4574;51.072;17.174;2023-02-12T08:51:56;102180.63;;;6.78;100.00
9077;BME280;4574;51.072;17.174;2023-02-12T08:54:28;102175.09;;;6.84;100.00
9077;BME280;4574;51.072;17.174;2023-02-12T08:56:57;102182.69;;;6.90;100.00
9077;BME280;4574;51.072;17.174;2023-02-12T08:59:26;102185.94;;;6.95;100.00
9077;BME280;4574;51.072;17.174;2023-02-12T09:01:55;102187.50;;;6.99;100.00
9077;BME280;4574;51.072;17.174;2023-02-12T09:04:25;102191.75;;;7.02;100.00
9077;BME280;4574;51.072;17.174;2023-02-12T09:06:54;102192.63;;;7.02;100.00
9077;BME280;4574;51.072;17.174;2023-02-12T09:09:23;102200.03;;;6.94;100.00
9077;BME280;4574;51.072;17.174;2023-02-12T09:11:52;102205.59;;;6.88;100.00
9077;BME280;4574;51.072;17.174;2023-02-12T09:14:21;102208.00;;;6.93;100.00
9077;BME280;4574;51.072;17.174;2023-02-12T09:16:51;102204.59;;;6.91;100.00
9077;BME280;4574;51.072;17.174;2023-02-12T09:19:20;102203.59;;;6.93;100.00
9077;BME280;4574;51.072;17.174;2023-02-12T09:21:52;102205.31;;;6.94;100.00
9077;BME280;4574;51.072;17.174;2023-02-12T09:24:22;102202.06;;;6.89;100.00
9077;BME280;4574;51.072;17.174;2023-02-12T09:26:52;102207.00;;;6.95;100.00
9077;BME280;4574;51.072;17.174;2023-02-12T09:29:21;102209.66;;;6.95;100.00
9077;BME280;4574;51.072;17.174;2023-02-12T09:31:49;102220.81;;;7.00;100.00
9077;BME280;4574;51.072;17.174;2023-02-12T09:34:19;102219.25;;;6.96;100.00
9077;BME280;4574;51.072;17.174;2023-02-12T09:36:48;102224.38;;;6.99;100.00
9077;BME280;4574;51.072;17.174;2023-02-12T09:39:16;102223.91;;;7.08;100.00
9077;BME280;4574;51.072;17.174;2023-02-12T09:42:09;102228.72;;;7.17;100.00
9077;BME280;4574;51.072;17.174;2023-02-12T09:44:46;102231.19;;;7.20;100.00
9077;BME280;4574;51.072;17.174;2023-02-12T09:47:24;102229.41;;;7.21;100.00
9077;BME280;4574;51.072;17.174;2023-02-12T09:50:02;102231.66;;;7.28;100.00
9077;BME280;4574;51.072;17.174;2023-02-12T09:52:34;102229.66;;;7.33;100.00
9077;BME280;4574;51.072;17.174;2023-02-12T09:55:04;102226.94;;;7.35;100.00
9077;BME280;4574;51.072;17.174;2023-02-12T09:57:35;102233.38;;;7.46;100.00
9077;BME280;4574;51.072;17.174;2023-02-12T10:00:05;102225.94;;;7.54;100.00
9077;BME280;4574;51.072;17.174;2023-02-12T10:02:35;102235.22;;;7.61;100.00
9077;BME280;4574;51.072;17.174;2023-02-12T10:05:05;102234.13;;;7.65;100.00
9077;BME280;4574;51.072;17.174;2023-02-12T10:08:14;102234.28;;;7.62;100.00
9077;BME280;4574;51.072;17.174;2023-02-12T10:10:51;102231.97;;;7.56;100.00
9077;BME280;4574;51.072;17.174;2023-02-12T10:13:32;102231.97;;;7.56;100.00
9077;BME280;4574;51.072;17.174;2023-02-12T10:16:09;102219.41;;;7.44;100.00
9077;BME280;4574;51.072;17.174;2023-02-12T10:18:59;102230.88;;;7.60;100.00
9077;BME280;4574;51.072;17.174;2023-02-12T10:21:40;102231.50;;;7.65;100.00
9077;BME280;4574;51.072;17.174;2023-02-12T10:24:25;102234.91;;;7.67;100.00
9077;BME280;4574;51.072;17.174;2023-02-12T10:26:58;102225.59;;;7.60;100.00
9077;BME280;4574;51.072;17.174;2023-02-12T10:29:31;102236.28;;;7.74;100.00
9077;BME280;4574;51.072;17.174;2023-02-12T10:32:04;102225.59;;;7.77;100.00
9077;BME280;4574;51.072;17.174;2023-02-12T10:34:35;102227.66;;;7.88;100.00
9077;BME280;4574;51.072;17.174;2023-02-12T10:37:11;102225.47;;;7.95;100.00
9077;BME280;4574;51.072;17.174;2023-02-12T10:39:49;102219.88;;;8.01;100.00
9077;BME280;4574;51.072;17.174;2023-02-12T10:42:28;102204.38;;;7.95;100.00
9077;BME280;4574;51.072;17.174;2023-02-12T10:45:02;102222.09;;;8.09;100.00
9077;BME280;4574;51.072;17.174;2023-02-12T10:47:31;102221.47;;;8.04;100.00
9077;BME280;4574;51.072;17.174;2023-02-12T10:50:01;102217.47;;;7.97;100.00
9077;BME280;4574;51.072;17.174;2023-02-12T10:52:35;102217.25;;;8.01;100.00
9077;BME280;4574;51.072;17.174;2023-02-12T10:55:26;102214.94;;;8.11;100.00
9077;BME280;4574;51.072;17.174;2023-02-12T10:57:55;102213.31;;;8.25;100.00
9077;BME280;4574;51.072;17.174;2023-02-12T11:00:29;102204.38;;;8.43;100.00
9077;BME280;4574;51.072;17.174;2023-02-12T11:03:02;102210.59;;;8.58;100.00
9077;BME280;4574;51.072;17.174;2023-02-12T11:05:33;102207.97;;;8.58;100.00
9077;BME280;4574;51.072;17.174;2023-02-12T11:08:03;102197.75;;;8.52;100.00
9077;BME280;4574;51.072;17.174;2023-02-12T11:10:35;102208.31;;;8.52;100.00
9077;BME280;4574;51.072;17.174;2023-02-12T11:13:05;102186.94;;;8.25;100.00
9077;BME280;4574;51.072;17.174;2023-02-12T11:15:49;102203.69;;;8.40;100.00
9077;BME280;4574;51.072;17.174;2023-02-12T11:18:21;102197.47;;;8.41;100.00
9077;BME280;4574;51.072;17.174;2023-02-12T11:20:55;102206.16;;;8.43;100.00
9077;BME280;4574;51.072;17.174;2023-02-12T11:23:26;102212.03;;;8.48;100.00
9077;BME280;4574;51.072;17.174;2023-02-12T11:25:58;102205.81;;;8.49;100.00
9077;BME280;4574;51.072;17.174;2023-02-12T11:28:27;102197.91;;;8.64;100.00
9077;BME280;4574;51.072;17.174;2023-02-12T11:31:00;102198.41;;;8.71;100.00
9077;BME280;4574;51.072;17.174;2023-02-12T11:33:32;102206.69;;;8.65;100.00
9077;BME280;4574;51.072;17.174;2023-02-12T11:36:04;102202.34;;;8.64;100.00
9077;BME280;4574;51.072;17.174;2023-02-12T11:38:36;102199.00;;;8.60;100.00
9077;BME280;4574;51.072;17.174;2023-02-12T11:41:16;102197.25;;;8.61;100.00
9077;BME280;4574;51.072;17.174;2023-02-12T11:43:48;102198.16;;;8.60;100.00
9077;BME280;4574;51.072;17.174;2023-02-12T11:46:22;102198.94;;;8.62;100.00
9077;BME280;4574;51.072;17.174;2023-02-12T11:48:52;102203.06;;;8.97;100.00
9077;BME280;4574;51.072;17.174;2023-02-12T11:51:25;102210.50;;;8.75;100.00
9077;BME280;4574;51.072;17.174;2023-02-12T11:53:59;102202.94;;;8.69;100.00
9077;BME280;4574;51.072;17.174;2023-02-12T11:56:43;102201.56;;;8.62;100.00
9077;BME280;4574;51.072;17.174;2023-02-12T11:59:37;102199.53;;;8.51;100.00
9077;BME280;4574;51.072;17.174;2023-02-12T12:02:17;102198.69;;;8.51;100.00
9077;BME280;4574;51.072;17.174;2023-02-12T12:04:51;102196.97;;;8.50;100.00
9077;BME280;4574;51.072;17.174;2023-02-12T12:07:23;102201.31;;;8.51;100.00
9077;BME280;4574;51.072;17.174;2023-02-12T12:09:56;102203.63;;;8.57;100.00
9077;BME280;4574;51.072;17.174;2023-02-12T12:12:34;102200.47;;;8.50;100.00
9077;BME280;4574;51.072;17.174;2023-02-12T12:15:11;102206.28;;;8.57;100.00
9077;BME280;4574;51.072;17.174;2023-02-12T12:18:11;102205.56;;;8.69;100.00
9077;BME280;4574;51.072;17.174;2023-02-12T12:21:07;102199.31;;;9.01;100.00
9077;BME280;4574;51.072;17.174;2023-02-12T12:23:40;102199.13;;;9.04;100.00
9077;BME280;4574;51.072;17.174;2023-02-12T12:26:13;102197.78;;;8.97;100.00
9077;BME280;4574;51.072;17.174;2023-02-12T12:28:48;102194.72;;;8.89;100.00
9077;BME280;4574;51.072;17.174;2023-02-12T12:31:21;102194.72;;;8.89;100.00
9077;BME280;4574;51.072;17.174;2023-02-12T12:33:59;102193.03;;;8.88;100.00
9077;BME280;4574;51.072;17.174;2023-02-12T12:36:42;102200.84;;;8.89;100.00
9077;BME280;4574;51.072;17.174;2023-02-12T12:39:26;102187.75;;;8.88;100.00
9077;BME280;4574;51.072;17.174;2023-02-12T12:45:04;102186.28;;;8.98;100.00
9077;BME280;4574;51.072;17.174;2023-02-12T12:47:47;102178.53;;;8.95;100.00
9077;BME280;4574;51.072;17.174;2023-02-12T12:50:34;102181.41;;;8.90;100.00
9077;BME280;4574;51.072;17.174;2023-02-12T12:53:20;102171.13;;;8.86;100.00
9077;BME280;4574;51.072;17.174;2023-02-12T12:56:04;102184.34;;;8.86;100.00
9077;BME280;4574;51.072;17.174;2023-02-12T12:58:56;102181.88;;;8.83;100.00
9077;BME280;4574;51.072;17.174;2023-02-12T13:01:53;102172.84;;;8.87;100.00
9077;BME280;4574;51.072;17.174;2023-02-12T13:04:36;102181.25;;;8.93;100.00
9077;BME280;4574;51.072;17.174;2023-02-12T13:07:18;102169.63;;;9.25;100.00
9077;BME280;4574;51.072;17.174;2023-02-12T13:10:01;102179.22;;;9.41;100.00
9077;BME280;4574;51.072;17.174;2023-02-12T13:12:42;102181.06;;;9.69;100.00
9077;BME280;4574;51.072;17.174;2023-02-12T13:15:18;102176.78;;;9.80;100.00
9077;BME280;4574;51.072;17.174;2023-02-12T13:17:54;102179.44;;;9.66;100.00
9077;BME280;4574;51.072;17.174;2023-02-12T13:20:34;102187.34;;;9.52;100.00
9077;BME280;4574;51.072;17.174;2023-02-12T13:23:12;102178.09;;;9.45;100.00
9077;BME280;4574;51.072;17.174;2023-02-12T13:25:48;102183.53;;;9.28;100.00
9077;BME280;4574;51.072;17.174;2023-02-12T13:28:26;102191.81;;;9.23;100.00
9077;BME280;4574;51.072;17.174;2023-02-12T13:30:59;102196.25;;;9.22;100.00
9077;BME280;4574;51.072;17.174;2023-02-12T13:33:54;102187.91;;;9.14;100.00
9077;BME280;4574;51.072;17.174;2023-02-12T13:36:25;102185.75;;;9.07;100.00